Dan Macmillan — WDB9903 — position and weather

sailwx.info

Track history (hours):
 
Tides and Currents Weather Stations Pressure Air Temp Water Temp Dewpoint Dewpoint Depression Visibility Wind Speed Wind Dir Waves Ship Positions

Dan Macmillan

Owner: American River Transportation Company, St Louis, MO. More information available from US FCC via Universal Licensing System and Coast Guard Vessel Documentation Center.

Last reported at 2017-Oct-14 05:45 UTC. Time now 2017-Oct-17 04:02 UTC.
Position N 31°51' W 091°18'.

Length 63 m; draft 3 m.

Type: Towing. MMSI: 366984870.

Date/timePositionNaut miles runAvg speedWind from/ knotsBaromVisibWave heightAir tempDewpointWater temp
2017-Oct-14 05:45N 31°51' W 091°18'2 6.4
2017-Oct-14 05:26N 31°52' W 091°15'3 7.0
2017-Oct-14 04:57N 31°54' W 091°12'3 7.1
2017-Oct-14 04:30N 31°57' W 091°12'5 6.4
2017-Oct-14 03:41N 31°59' W 091°06'1 7.0
2017-Oct-14 03:30N 32°00' W 091°05'4 7.5
2017-Oct-14 03:01N 32°04' W 091°03'4 7.1
2017-Oct-14 02:30N 32°06' W 091°06'1 2.9
2017-Oct-14 02:01N 32°08' W 091°06'3 6.9
2017-Oct-14 01:30N 32°07' W 091°02'3 6.3
2017-Oct-14 01:01N 32°10' W 091°00'4 7.1
2017-Oct-14 00:31N 32°13' W 090°59'4 7.1
2017-Oct-14 00:01N 32°16' W 090°57'3 6.3
2017-Oct-13 23:31N 32°19' W 090°54'3 5.3
2017-Oct-13 23:01N 32°21' W 090°56'3 6.5
2017-Oct-13 22:30N 32°21' W 091°00'4 7.0
2017-Oct-13 22:01N 32°25' W 090°60'4 7.4
2017-Oct-13 21:31N 32°26' W 091°04'4 7.1
2017-Oct-13 21:01N 32°29' W 091°07'4 7.0
2017-Oct-13 20:30N 32°32' W 091°06'4 7.1
2017-Oct-13 20:01N 32°35' W 091°08'4 7.1
2017-Oct-13 19:26N 32°39' W 091°09'33 5.0
2017-Oct-13 12:48N 33°12' W 091°05'  
Track history (hours):
 
Tides and Currents Weather Stations Pressure Air Temp Water Temp Dewpoint Dewpoint Depression Visibility Wind Speed Wind Dir Waves Ship Positions

Dan Macmillan

Owner: American River Transportation Company, St Louis, MO. More information available from US FCC via Universal Licensing System and Coast Guard Vessel Documentation Center.

Last reported at 2017-Oct-14 05:45 UTC. Time now 2017-Oct-17 04:02 UTC.
Position N 31°51' W 091°18'.

Length 63 m; draft 3 m.

Type: Towing. MMSI: 366984870.

Date/timePositionNaut miles runAvg speedWind from/ knotsBaromVisibWave heightAir tempDewpointWater temp
2017-Oct-14 05:45N 31°51' W 091°18'2 6.4
2017-Oct-14 05:26N 31°52' W 091°15'3 7.0
2017-Oct-14 04:57N 31°54' W 091°12'3 7.1
2017-Oct-14 04:30N 31°57' W 091°12'5 6.4
2017-Oct-14 03:41N 31°59' W 091°06'1 7.0
2017-Oct-14 03:30N 32°00' W 091°05'4 7.5
2017-Oct-14 03:01N 32°04' W 091°03'4 7.1
2017-Oct-14 02:30N 32°06' W 091°06'1 2.9
2017-Oct-14 02:01N 32°08' W 091°06'3 6.9
2017-Oct-14 01:30N 32°07' W 091°02'3 6.3
2017-Oct-14 01:01N 32°10' W 091°00'4 7.1
2017-Oct-14 00:31N 32°13' W 090°59'4 7.1
2017-Oct-14 00:01N 32°16' W 090°57'3 6.3
2017-Oct-13 23:31N 32°19' W 090°54'3 5.3
2017-Oct-13 23:01N 32°21' W 090°56'3 6.5
2017-Oct-13 22:30N 32°21' W 091°00'4 7.0
2017-Oct-13 22:01N 32°25' W 090°60'4 7.4
2017-Oct-13 21:31N 32°26' W 091°04'4 7.1
2017-Oct-13 21:01N 32°29' W 091°07'4 7.0
2017-Oct-13 20:30N 32°32' W 091°06'4 7.1
2017-Oct-13 20:01N 32°35' W 091°08'4 7.1
2017-Oct-13 19:26N 32°39' W 091°09'33 5.0
2017-Oct-13 12:48N 33°12' W 091°05'  

Dump ship's entire track history